Terminal Aerodrome Forecast
Issued by NWS St Louis, MO

Home | Current Version | Previous Version | Graphics & Text | Print | Product List | Glossary On
Versions: 1 2 3 4 5 6 7 8 9 10 11 12 13 14 15 16 17 18 19 20 21 22 23 24
781
FTUS43 KLSX 290520
TAFSTL
TAF
KSTL 290520Z 2906/3012 31008KT P6SM SCT050
     FM291400 34009KT P6SM BKN025
     FM291800 34012G18KT P6SM BKN035
     FM300000 35008KT P6SM BKN045
     FM300700 34006KT P6SM BKN015=

USA.gov is the U.S. government's official web portal to all federal, state and local government web resources and services.